createdAt,value
2023-05-20T00:01:38.471Z,98517.19
2023-05-20T00:04:05.322Z,98516.09
2023-05-20T00:06:32.415Z,98513.94
2023-05-20T00:09:00.364Z,98519.06
2023-05-20T00:11:27.048Z,98516.09
2023-05-20T00:13:53.572Z,98512.31
2023-05-20T00:16:20.107Z,98509.91
2023-05-20T00:18:46.648Z,98510.72
2023-05-20T00:21:13.187Z,98517.22
2023-05-20T00:23:39.735Z,98509.34
2023-05-20T00:26:06.201Z,98509.09
2023-05-20T00:28:32.751Z,98502.59
2023-05-20T00:30:59.293Z,98503.69
2023-05-20T00:33:26.065Z,98500.44
2023-05-20T00:35:52.561Z,98503.66
2023-05-20T00:38:19.146Z,98504.69
2023-05-20T00:40:45.663Z,98504.13
2023-05-20T00:43:12.258Z,98503.59
2023-05-20T00:45:39.238Z,98504.69
2023-05-20T00:48:06.771Z,98502.53
2023-05-20T00:50:33.892Z,98505.22
2023-05-20T00:53:00.620Z,98502.53
2023-05-20T00:55:27.318Z,98499.56
2023-05-20T00:57:54.871Z,98491.47
2023-05-20T01:00:21.415Z,98492.00
2023-05-20T01:02:49.277Z,98486.06
2023-05-20T01:05:16.144Z,98483.88
2023-05-20T01:07:43.189Z,98480.34
2023-05-20T01:10:10.268Z,98476.56
2023-05-20T01:12:41.743Z,98482.53
2023-05-20T01:15:14.585Z,98478.47
2023-05-20T01:17:51.158Z,98478.75
2023-05-20T01:20:18.923Z,98481.44
2023-05-20T01:23:04.181Z,98473.91
2023-05-20T01:25:30.896Z,98476.53
2023-05-20T01:27:57.945Z,98473.28
2023-05-20T01:30:31.053Z,98467.88
2023-05-20T01:33:05.050Z,98474.13
2023-05-20T01:35:32.298Z,98466.78
2023-05-20T01:38:00.180Z,98472.19
2023-05-20T01:40:28.252Z,98470.63
2023-05-20T01:42:56.171Z,98473.28
2023-05-20T01:45:24.047Z,98475.19
2023-05-20T01:47:50.705Z,98472.22
2023-05-20T01:50:17.474Z,98469.78
2023-05-20T01:52:43.974Z,98461.16
2023-05-20T01:55:10.588Z,98460.09
2023-05-20T01:57:37.084Z,98459.28
2023-05-20T02:00:04.067Z,98459.81
2023-05-20T02:02:30.713Z,98458.16
2023-05-20T02:04:57.315Z,98458.97
2023-05-20T02:07:23.887Z,98467.06
2023-05-20T02:09:50.424Z,98460.88
2023-05-20T02:12:17.182Z,98460.88
2023-05-20T02:14:47.983Z,98457.06
2023-05-20T02:17:16.708Z,98453.81
2023-05-20T02:19:44.627Z,98456.81
2023-05-20T02:22:11.231Z,98453.25
2023-05-20T02:24:37.764Z,98448.66
2023-05-20T02:27:06.234Z,98451.63
2023-05-20T02:29:32.754Z,98450.28
2023-05-20T02:31:59.570Z,98447.59
2023-05-20T02:34:28.124Z,98448.41
2023-05-20T02:36:54.806Z,98450.00
2023-05-20T02:39:21.324Z,98446.75
2023-05-20T02:41:48.053Z,98446.75
2023-05-20T02:44:14.791Z,98439.72
2023-05-20T02:46:41.481Z,98445.66
2023-05-20T02:49:07.994Z,98427.56
2023-05-20T02:51:34.610Z,98434.34
2023-05-20T02:54:01.134Z,98430.53
2023-05-20T02:56:28.714Z,98423.78
2023-05-20T02:58:55.417Z,98420.28
2023-05-20T03:01:22.054Z,98420.28
2023-05-20T03:03:48.772Z,98424.34
2023-05-20T03:06:15.450Z,98428.91
2023-05-20T03:08:42.853Z,98426.50
2023-05-20T03:11:09.509Z,98422.94
2023-05-20T03:13:36.154Z,98422.38
2023-05-20T03:16:03.055Z,98426.19
2023-05-20T03:18:29.720Z,98423.72
2023-05-20T03:20:56.359Z,98419.47
2023-05-20T03:23:22.898Z,98422.97
2023-05-20T03:25:49.469Z,98423.78
2023-05-20T03:28:16.089Z,98420.53
2023-05-20T03:30:42.802Z,98428.38
2023-05-20T03:33:09.757Z,98426.72
2023-05-20T03:35:36.483Z,98428.91
2023-05-20T03:38:03.272Z,98424.59
2023-05-20T03:40:29.939Z,98424.59
2023-05-20T03:42:56.613Z,98410.53
2023-05-20T03:45:23.332Z,98415.41
2023-05-20T03:47:50.357Z,98428.31
2023-05-20T03:50:17.096Z,98423.50
2023-05-20T03:52:43.917Z,98423.50
2023-05-20T03:55:11.806Z,98422.66
2023-05-20T03:57:38.490Z,98421.84
2023-05-20T04:00:11.950Z,98425.66
2023-05-20T04:02:38.711Z,98419.16
2023-05-20T04:05:08.591Z,98412.13
2023-05-20T04:07:35.849Z,98413.44
2023-05-20T04:10:03.440Z,98418.88
2023-05-20T04:12:31.869Z,98408.34
2023-05-20T04:15:01.196Z,98415.34
2023-05-20T04:17:31.506Z,98410.78
2023-05-20T04:19:59.843Z,98428.09
2023-05-20T04:22:27.300Z,98429.75
2023-05-20T04:24:53.867Z,98425.13
2023-05-20T04:27:21.449Z,98424.56
2023-05-20T04:29:47.970Z,98422.44
2023-05-20T04:32:18.933Z,98421.91
2023-05-20T04:34:46.693Z,98423.53
2023-05-20T04:37:13.918Z,98420.53
2023-05-20T04:39:40.655Z,98418.09
2023-05-20T04:42:07.251Z,98422.38
2023-05-20T04:44:34.434Z,98412.97
2023-05-20T04:47:00.985Z,98417.34
2023-05-20T04:49:29.187Z,98414.94
2023-05-20T04:51:55.752Z,98415.19
2023-05-20T04:54:22.561Z,98417.59
2023-05-20T04:56:49.173Z,98423.53
2023-05-20T04:59:15.844Z,98420.03
2023-05-20T05:01:42.810Z,98417.06
2023-05-20T05:04:09.544Z,98417.88
2023-05-20T05:06:36.384Z,98415.19
2023-05-20T05:09:03.236Z,98414.38
2023-05-20T05:11:29.789Z,98413.06
2023-05-20T05:13:56.695Z,98401.72
2023-05-20T05:16:23.394Z,98400.91
2023-05-20T05:18:49.991Z,98402.25
2023-05-20T05:21:16.592Z,98390.88
2023-05-20T05:23:43.166Z,98396.59
2023-05-20T05:26:09.652Z,98399.31
2023-05-20T05:28:36.215Z,98395.50
2023-05-20T05:31:02.768Z,98394.94
2023-05-20T05:33:29.568Z,98396.59
2023-05-20T05:35:59.084Z,98393.88
2023-05-20T05:38:25.975Z,98393.06
2023-05-20T05:40:53.059Z,98384.44
2023-05-20T05:43:19.766Z,98390.13
2023-05-20T05:45:46.320Z,98392.03
2023-05-20T05:48:12.913Z,98390.13
2023-05-20T05:50:39.475Z,98393.38
2023-05-20T05:53:06.084Z,98392.31
2023-05-20T05:55:33.593Z,98392.28
2023-05-20T05:58:00.230Z,98390.13
2023-05-20T06:00:26.844Z,98395.53
2023-05-20T06:02:53.540Z,98396.34
2023-05-20T06:05:20.269Z,98392.31
2023-05-20T06:07:46.860Z,98393.91
2023-05-20T06:10:13.529Z,98398.75
2023-05-20T06:12:40.046Z,98400.41
2023-05-20T06:15:07.620Z,98395.53
2023-05-20T06:17:34.160Z,98398.53
2023-05-20T06:20:00.848Z,98392.56
2023-05-20T06:22:27.416Z,98387.47
2023-05-20T06:24:56.652Z,98391.78
2023-05-20T06:27:23.174Z,98395.28
2023-05-20T06:29:49.698Z,98388.25
2023-05-20T06:32:16.314Z,98375.59
2023-05-20T06:34:43.118Z,98376.66
2023-05-20T06:37:09.757Z,98370.19
2023-05-20T06:39:36.293Z,98368.56
2023-05-20T06:42:03.335Z,98366.41
2023-05-20T06:44:31.344Z,98368.81
2023-05-20T06:46:57.824Z,98370.16
2023-05-20T06:49:24.864Z,98378.00
2023-05-20T06:51:51.607Z,98365.81
2023-05-20T06:54:18.252Z,98371.53
2023-05-20T06:56:45.269Z,98369.06
2023-05-20T06:59:11.791Z,98373.91
2023-05-20T07:01:38.299Z,98363.88
2023-05-20T07:04:04.984Z,98367.88
2023-05-20T07:06:31.747Z,98358.09
2023-05-20T07:08:58.347Z,98359.13
2023-05-20T07:11:24.976Z,98359.09
2023-05-20T07:13:51.494Z,98358.28
2023-05-20T07:16:18.124Z,98362.91
2023-05-20T07:18:44.706Z,98354.53
2023-05-20T07:21:11.236Z,98347.81
2023-05-20T07:23:37.717Z,98345.09
2023-05-20T07:26:04.395Z,98355.69
2023-05-20T07:28:30.908Z,98356.25
2023-05-20T07:30:58.047Z,98356.25
2023-05-20T07:33:24.807Z,98358.16
2023-05-20T07:35:52.016Z,98350.84
2023-05-20T07:38:18.585Z,98345.44
2023-05-20T07:40:45.546Z,98343.50
2023-05-20T07:43:12.067Z,98341.88
2023-05-20T07:45:38.785Z,98347.34
2023-05-20T07:48:05.931Z,98341.94
2023-05-20T07:50:33.650Z,98345.19
2023-05-20T07:53:00.321Z,98353.56
2023-05-20T07:55:26.960Z,98353.84
2023-05-20T07:57:53.525Z,98353.06
2023-05-20T08:00:20.769Z,98347.88
2023-05-20T08:02:47.699Z,98353.84
2023-05-20T08:05:14.388Z,98355.69
2023-05-20T08:07:40.903Z,98353.00
2023-05-20T08:10:08.134Z,98354.03
2023-05-20T08:12:34.723Z,98344.06
2023-05-20T08:15:01.239Z,98352.69
2023-05-20T08:17:27.781Z,98353.25
2023-05-20T08:19:54.378Z,98352.69
2023-05-20T08:22:20.925Z,98342.97
2023-05-20T08:24:47.426Z,98341.78
2023-05-20T08:27:13.938Z,98349.41
2023-05-20T08:29:40.541Z,98342.63
2023-05-20T08:32:07.313Z,98340.69
2023-05-20T08:34:33.862Z,98335.81
2023-05-20T08:37:00.618Z,98332.84
2023-05-20T08:39:27.311Z,98327.63
2023-05-20T08:41:53.889Z,98335.25
2023-05-20T08:44:22.824Z,98330.53
2023-05-20T08:46:50.333Z,98333.78
2023-05-20T08:49:17.170Z,98340.97
2023-05-20T08:51:44.201Z,98325.88
2023-05-20T08:54:12.055Z,98328.25
2023-05-20T08:56:39.453Z,98327.69
2023-05-20T08:59:06.620Z,98324.94
2023-05-20T09:01:37.231Z,98331.84
2023-05-20T09:04:03.896Z,98324.38
2023-05-20T09:06:31.363Z,98329.44
2023-05-20T09:08:57.852Z,98322.03
2023-05-20T09:11:24.376Z,98313.75
2023-05-20T09:13:51.545Z,98322.66
2023-05-20T09:16:18.335Z,98324.41
2023-05-20T09:18:44.875Z,98312.91
2023-05-20T09:21:11.779Z,98318.47
2023-05-20T09:23:38.781Z,98314.13
2023-05-20T09:26:05.384Z,98309.78
2023-05-20T09:28:31.941Z,98308.88
2023-05-20T09:31:02.136Z,98312.41
2023-05-20T09:33:32.159Z,98312.19
2023-05-20T09:36:07.811Z,98313.75
2023-05-20T09:38:38.915Z,98301.31
2023-05-20T09:41:12.120Z,98295.47
2023-05-20T09:43:41.954Z,98304.53
2023-05-20T09:46:09.155Z,98306.16
2023-05-20T09:48:39.957Z,98305.06
2023-05-20T09:51:07.936Z,98303.66
2023-05-20T09:53:34.904Z,98311.13
2023-05-20T09:56:01.551Z,98305.97
2023-05-20T09:58:29.385Z,98308.88
2023-05-20T10:00:56.126Z,98307.13
2023-05-20T10:03:28.025Z,98311.59
2023-05-20T10:06:29.943Z,98311.59
2023-05-20T10:09:07.621Z,98311.00
2023-05-20T10:12:02.046Z,98305.66
2023-05-20T10:14:46.421Z,98307.34
2023-05-20T10:17:31.509Z,98304.66
2023-05-20T10:20:03.002Z,98302.31
2023-05-20T10:22:34.041Z,98306.97
2023-05-20T10:25:08.587Z,98303.72
2023-05-20T10:27:46.325Z,98293.97
2023-05-20T10:30:18.048Z,98288.03
2023-05-20T10:32:56.782Z,98287.44
2023-05-20T10:35:28.639Z,98288.56
2023-05-20T10:38:07.308Z,98279.88
2023-05-20T10:40:34.101Z,98281.81
2023-05-20T10:43:12.173Z,98279.69
2023-05-20T10:45:58.307Z,98280.00
2023-05-20T10:48:24.984Z,98278.09
2023-05-20T10:50:58.160Z,98284.84
2023-05-20T10:53:33.420Z,98282.41
2023-05-20T10:56:01.107Z,98278.88
2023-05-20T10:58:27.685Z,98271.09
2023-05-20T11:00:55.628Z,98264.78
2023-05-20T11:03:23.038Z,98262.28
2023-05-20T11:05:51.239Z,98263.44
2023-05-20T11:08:28.586Z,98272.53
2023-05-20T11:10:59.314Z,98266.34
2023-05-20T11:13:26.708Z,98271.63
2023-05-20T11:15:53.546Z,98278.41
2023-05-20T11:18:20.520Z,98268.50
2023-05-20T11:20:47.514Z,98268.25
2023-05-20T11:23:15.170Z,98259.56
2023-05-20T11:25:41.728Z,98257.16
2023-05-20T11:28:13.117Z,98259.59
2023-05-20T11:30:41.283Z,98256.47
2023-05-20T11:33:12.648Z,98254.00
2023-05-20T11:35:51.746Z,98252.09
2023-05-20T11:38:19.554Z,98243.81
2023-05-20T11:40:52.079Z,98234.94
2023-05-20T11:43:19.450Z,98234.03
2023-05-20T11:45:48.146Z,98230.00
2023-05-20T11:48:17.343Z,98230.19
2023-05-20T11:50:46.331Z,98227.44
2023-05-20T11:53:18.113Z,98228.34
2023-05-20T11:55:56.197Z,98230.00
2023-05-20T11:58:27.998Z,98226.25
2023-05-20T12:00:59.501Z,98228.13
2023-05-20T12:03:36.840Z,98217.91
2023-05-20T12:06:04.025Z,98224.69
2023-05-20T12:08:30.555Z,98204.28
2023-05-20T12:10:57.056Z,98208.69
2023-05-20T12:13:26.221Z,98209.91
2023-05-20T12:15:54.007Z,98207.72
2023-05-20T12:18:20.532Z,98205.97
2023-05-20T12:20:47.057Z,98191.19
2023-05-20T12:23:13.612Z,98194.94
2023-05-20T12:25:40.156Z,98188.63
2023-05-20T12:28:07.192Z,98196.97
2023-05-20T12:30:34.150Z,98201.97
2023-05-20T12:33:01.008Z,98201.19
2023-05-20T12:35:42.371Z,98202.13
2023-05-20T12:38:09.551Z,98203.19
2023-05-20T12:40:37.097Z,98202.25
2023-05-20T12:43:05.160Z,98208.66
2023-05-20T12:45:31.780Z,98201.25
2023-05-20T12:47:58.734Z,98202.16
2023-05-20T12:50:25.979Z,98195.03
2023-05-20T12:52:52.616Z,98185.72
2023-05-20T12:55:19.287Z,98187.00
2023-05-20T12:57:47.493Z,98182.81
2023-05-20T13:00:14.656Z,98191.97
2023-05-20T13:02:42.354Z,98182.69
2023-05-20T13:05:09.659Z,98183.56
2023-05-20T13:07:36.337Z,98181.41
2023-05-20T13:10:02.945Z,98180.94
2023-05-20T13:12:29.753Z,98184.16
2023-05-20T13:14:56.396Z,98185.09
2023-05-20T13:17:22.941Z,98179.00
2023-05-20T13:22:16.072Z,98183.66
2023-05-20T13:24:42.577Z,98184.94
2023-05-20T13:27:09.131Z,98182.72
2023-05-20T13:29:35.750Z,98181.25
2023-05-20T13:32:02.334Z,98191.56
2023-05-20T13:34:30.325Z,98185.94
2023-05-20T13:36:56.951Z,98176.59
2023-05-20T13:39:23.590Z,98180.94
2023-05-20T13:41:50.852Z,98175.06
2023-05-20T13:44:17.396Z,98159.88
2023-05-20T13:46:44.028Z,98168.81
2023-05-20T13:49:10.590Z,98166.84
2023-05-20T13:51:37.106Z,98168.78
2023-05-20T13:54:03.856Z,98170.91
2023-05-20T13:56:30.475Z,98169.63
2023-05-20T13:58:57.223Z,98166.06
2023-05-20T14:01:24.068Z,98156.47
2023-05-20T14:03:51.044Z,98157.41
2023-05-20T14:06:18.908Z,98149.53
2023-05-20T14:08:46.127Z,98156.31
2023-05-20T14:11:13.127Z,98160.47
2023-05-20T14:13:39.673Z,98156.13
2023-05-20T14:16:06.422Z,98161.13
2023-05-20T14:18:33.015Z,98167.69
2023-05-20T14:20:59.766Z,98167.06
2023-05-20T14:23:26.270Z,98165.56
2023-05-20T14:25:52.852Z,98169.13
2023-05-20T14:28:19.413Z,98166.72
2023-05-20T14:30:45.954Z,98177.47
2023-05-20T14:33:12.793Z,98170.41
2023-05-20T14:35:39.497Z,98166.72
2023-05-20T14:38:06.977Z,98162.84
2023-05-20T14:40:33.753Z,98154.84
2023-05-20T14:43:00.375Z,98160.78
2023-05-20T14:45:26.905Z,98164.22
2023-05-20T14:47:53.691Z,98160.34
2023-05-20T14:50:20.758Z,98149.59
2023-05-20T14:52:47.533Z,98156.13
2023-05-20T14:55:14.106Z,98158.84
2023-05-20T14:57:40.632Z,98152.28
2023-05-20T15:00:07.867Z,98149.06
2023-05-20T15:02:34.418Z,98153.59
2023-05-20T15:05:01.187Z,98157.47
2023-05-20T15:07:27.781Z,98161.97
2023-05-20T15:09:54.541Z,98156.00
2023-05-20T15:12:21.356Z,98160.69
2023-05-20T15:14:47.899Z,98159.84
2023-05-20T15:17:14.437Z,98157.75
2023-05-20T15:19:41.805Z,98164.53
2023-05-20T15:22:09.072Z,98157.75
2023-05-20T15:24:35.659Z,98156.31
2023-05-20T15:27:02.289Z,98147.81
2023-05-20T15:29:28.792Z,98154.22
2023-05-20T15:31:55.409Z,98158.59
2023-05-20T15:34:21.942Z,98155.84
2023-05-20T15:36:48.543Z,98163.56
2023-05-20T15:39:15.179Z,98150.25
2023-05-20T15:41:42.447Z,98162.88
2023-05-20T15:44:09.427Z,98164.50
2023-05-20T15:46:36.252Z,98160.59
2023-05-20T15:49:02.910Z,98169.63
2023-05-20T15:51:29.465Z,98160.94
2023-05-20T15:53:56.062Z,98167.59
2023-05-20T15:56:23.016Z,98160.66
2023-05-20T15:58:49.565Z,98159.47
2023-05-20T16:01:16.240Z,98158.16
2023-05-20T16:03:44.101Z,98163.78
2023-05-20T16:06:11.813Z,98170.16
2023-05-20T16:08:38.657Z,98160.47
2023-05-20T16:11:05.173Z,98151.97
2023-05-20T16:13:31.909Z,98152.59
2023-05-20T16:15:59.052Z,98154.03
2023-05-20T16:18:30.269Z,98158.31
2023-05-20T16:20:57.624Z,98153.69
2023-05-20T16:23:24.738Z,98157.34
2023-05-20T16:25:51.483Z,98148.41
2023-05-20T16:28:18.279Z,98146.16
2023-05-20T16:30:44.845Z,98148.66
2023-05-20T16:33:13.340Z,98144.22
2023-05-20T16:35:40.120Z,98145.97
2023-05-20T16:38:07.003Z,98149.78
2023-05-20T16:40:33.878Z,98143.53
2023-05-20T16:43:01.160Z,98144.50
2023-05-20T16:45:27.957Z,98141.63
2023-05-20T16:47:55.501Z,98139.84
2023-05-20T16:50:22.281Z,98136.44
2023-05-20T16:52:48.850Z,98139.28
2023-05-20T16:55:15.544Z,98134.34
2023-05-20T16:57:43.434Z,98136.41
2023-05-20T17:00:11.524Z,98123.09
2023-05-20T17:02:38.237Z,98127.16
2023-05-20T17:05:05.160Z,98132.97
2023-05-20T17:07:33.420Z,98142.25
2023-05-20T17:10:00.426Z,98151.91
2023-05-20T17:12:27.350Z,98153.16
2023-05-20T17:14:54.134Z,98154.38
2023-05-20T17:17:21.277Z,98152.88
2023-05-20T17:19:47.815Z,98150.16
2023-05-20T17:22:14.362Z,98145.94
2023-05-20T17:24:41.044Z,98151.59
2023-05-20T17:27:07.838Z,98156.06
2023-05-20T17:29:34.420Z,98143.16
2023-05-20T17:32:01.402Z,98143.88
2023-05-20T17:34:27.964Z,98140.34
2023-05-20T17:36:54.512Z,98134.34
2023-05-20T17:39:21.522Z,98143.22
2023-05-20T17:41:48.103Z,98141.31
2023-05-20T17:44:14.723Z,98142.00
2023-05-20T17:46:41.468Z,98152.09
2023-05-20T17:49:08.168Z,98147.25
2023-05-20T17:51:34.841Z,98148.66
2023-05-20T17:54:01.536Z,98149.69
2023-05-20T17:56:28.163Z,98161.06
2023-05-20T17:58:56.141Z,98154.91
2023-05-20T18:01:23.409Z,98155.31
2023-05-20T18:03:50.052Z,98152.59
2023-05-20T18:06:17.980Z,98157.34
2023-05-20T18:08:44.591Z,98154.28
2023-05-20T18:11:11.176Z,98162.59
2023-05-20T18:13:37.746Z,98154.09
2023-05-20T18:16:04.644Z,98162.06
2023-05-20T18:18:31.204Z,98157.63
2023-05-20T18:20:57.718Z,98154.59
2023-05-20T18:23:24.197Z,98152.69
2023-05-20T18:25:50.674Z,98153.19
2023-05-20T18:28:17.287Z,98151.88
2023-05-20T18:30:43.837Z,98155.72
2023-05-20T18:33:10.925Z,98155.72
2023-05-20T18:35:37.624Z,98149.56
2023-05-20T18:38:04.184Z,98146.03
2023-05-20T18:40:30.888Z,98148.94
2023-05-20T18:42:58.340Z,98144.22
2023-05-20T18:45:25.879Z,98147.41
2023-05-20T18:47:54.357Z,98147.41
2023-05-20T18:50:21.100Z,98143.75
2023-05-20T18:52:47.682Z,98141.91
2023-05-20T18:55:14.314Z,98145.44
2023-05-20T18:57:40.891Z,98149.78
2023-05-20T19:00:12.117Z,98146.34
2023-05-20T19:02:40.327Z,98149.66
2023-05-20T19:05:08.685Z,98150.38
2023-05-20T19:07:35.919Z,98144.56
2023-05-20T19:10:03.236Z,98140.31
2023-05-20T19:12:30.136Z,98140.72
2023-05-20T19:14:57.036Z,98143.63
2023-05-20T19:17:23.971Z,98139.22
2023-05-20T19:19:50.576Z,98136.59
2023-05-20T19:22:17.154Z,98137.56
2023-05-20T19:24:43.715Z,98139.03
2023-05-20T19:27:10.485Z,98136.31
2023-05-20T19:29:37.002Z,98133.31
2023-05-20T19:32:03.823Z,98138.28
2023-05-20T19:34:30.394Z,98130.75
2023-05-20T19:36:57.161Z,98136.13
2023-05-20T19:39:23.780Z,98133.09
2023-05-20T19:41:50.478Z,98136.28
2023-05-20T19:44:17.130Z,98129.13
2023-05-20T19:46:43.758Z,98130.66
2023-05-20T19:49:10.285Z,98134.50
2023-05-20T19:51:37.168Z,98126.22
2023-05-20T19:54:03.755Z,98132.38
2023-05-20T19:56:30.405Z,98138.88
2023-05-20T19:59:01.532Z,98154.38
2023-05-20T20:01:28.360Z,98151.50
2023-05-20T20:03:55.023Z,98155.34
2023-05-20T20:06:21.688Z,98149.09
2023-05-20T20:08:48.230Z,98146.78
2023-05-20T20:11:15.018Z,98155.63
2023-05-20T20:13:41.575Z,98151.94
2023-05-20T20:16:08.628Z,98151.56
2023-05-20T20:18:35.319Z,98158.59
2023-05-20T20:21:05.654Z,98155.44
2023-05-20T20:23:32.946Z,98149.53
2023-05-20T20:25:59.550Z,98145.13
2023-05-20T20:28:26.337Z,98146.78
2023-05-20T20:30:52.952Z,98140.88
2023-05-20T20:33:19.664Z,98145.19
2023-05-20T20:35:46.747Z,98147.38
2023-05-20T20:38:13.603Z,98150.81
2023-05-20T20:40:42.476Z,98149.22
2023-05-20T20:43:10.913Z,98143.88
2023-05-20T20:45:37.555Z,98144.81
2023-05-20T20:48:08.153Z,98145.38
2023-05-20T20:50:35.837Z,98148.72
2023-05-20T20:53:02.750Z,98148.22
2023-05-20T20:55:32.164Z,98149.06
2023-05-20T20:58:02.683Z,98148.63
2023-05-20T21:00:29.644Z,98150.47
2023-05-20T21:02:56.412Z,98146.38
2023-05-20T21:05:26.442Z,98150.75
2023-05-20T21:07:58.361Z,98140.41
2023-05-20T21:10:29.880Z,98141.69
2023-05-20T21:12:57.910Z,98137.31
2023-05-20T21:15:25.792Z,98128.94
2023-05-20T21:17:52.678Z,98133.63
2023-05-20T21:20:21.549Z,98126.38
2023-05-20T21:22:48.335Z,98137.44
2023-05-20T21:25:15.015Z,98131.66
2023-05-20T21:27:41.552Z,98117.88
2023-05-20T21:30:11.645Z,98118.50
2023-05-20T21:32:38.529Z,98120.81
2023-05-20T21:35:05.744Z,98110.41
2023-05-20T21:37:32.281Z,98109.63
2023-05-20T21:39:58.871Z,98114.22
2023-05-20T21:42:25.572Z,98120.81
2023-05-20T21:44:52.078Z,98120.81
2023-05-20T21:47:20.657Z,98125.19
2023-05-20T21:49:48.317Z,98115.72
2023-05-20T21:52:15.233Z,98122.00
2023-05-20T21:54:41.990Z,98117.88
2023-05-20T21:57:08.646Z,98120.34
2023-05-20T21:59:35.138Z,98124.72
2023-05-20T22:02:01.847Z,98115.59
2023-05-20T22:04:28.728Z,98114.97
2023-05-20T22:06:56.493Z,98115.81
2023-05-20T22:09:23.125Z,98116.69
2023-05-20T22:11:49.725Z,98109.59
2023-05-20T22:14:16.916Z,98116.09
2023-05-20T22:16:46.407Z,98121.59
2023-05-20T22:19:16.694Z,98113.38
2023-05-20T22:21:50.052Z,98106.41
2023-05-20T22:24:17.941Z,98114.56
2023-05-20T22:26:44.664Z,98109.69
2023-05-20T22:29:11.177Z,98097.16
2023-05-20T22:31:38.189Z,98094.50
2023-05-20T22:34:05.647Z,98093.41
2023-05-20T22:36:36.311Z,98094.03
2023-05-20T22:39:04.204Z,98095.13
2023-05-20T22:41:30.941Z,98095.06
2023-05-20T22:43:57.408Z,98104.38
2023-05-20T22:46:24.873Z,98097.09
2023-05-20T22:48:55.605Z,98092.50
2023-05-20T22:51:22.781Z,98090.09
2023-05-20T22:53:49.511Z,98088.97
2023-05-20T22:56:16.228Z,98083.25
2023-05-20T22:58:43.644Z,98085.94
2023-05-20T23:01:10.508Z,98083.84
2023-05-20T23:03:38.131Z,98082.28
2023-05-20T23:06:04.869Z,98084.44
2023-05-20T23:08:31.434Z,98077.97
2023-05-20T23:10:58.064Z,98072.88
2023-05-20T23:13:24.951Z,98073.94
2023-05-20T23:15:51.824Z,98079.66
2023-05-20T23:18:18.914Z,98079.09
2023-05-20T23:20:45.561Z,98075.56
2023-05-20T23:23:12.120Z,98074.78
2023-05-20T23:25:39.290Z,98074.47
2023-05-20T23:28:06.499Z,98071.53
2023-05-20T23:30:34.744Z,98073.66
2023-05-20T23:33:02.082Z,98067.72
2023-05-20T23:35:28.823Z,98075.84
2023-05-20T23:37:55.349Z,98065.53
2023-05-20T23:40:22.300Z,98070.72
2023-05-20T23:42:48.765Z,98074.81
2023-05-20T23:45:15.304Z,98067.78
2023-05-20T23:47:42.073Z,98065.00
2023-05-20T23:50:09.412Z,98059.91
2023-05-20T23:52:36.038Z,98063.41
2023-05-20T23:55:02.542Z,98066.91
2023-05-20T23:57:29.009Z,98066.09
2023-05-20T23:59:55.569Z,98062.84
